createdAt,value
2023-12-09T00:02:51.460Z,-0.30
2023-12-09T00:05:54.778Z,-0.29
2023-12-09T00:08:57.866Z,-0.29
2023-12-09T00:12:00.933Z,-0.30
2023-12-09T00:15:05.616Z,-0.32
2023-12-09T00:18:09.228Z,-0.32
2023-12-09T00:21:12.769Z,-0.35
2023-12-09T00:24:15.877Z,-0.37
2023-12-09T00:27:18.934Z,-0.39
2023-12-09T00:30:22.453Z,-0.40
2023-12-09T00:33:25.829Z,-0.41
2023-12-09T00:36:29.035Z,-0.41
2023-12-09T00:39:32.218Z,-0.40
2023-12-09T00:42:35.326Z,-0.40
2023-12-09T00:45:38.585Z,-0.41
2023-12-09T00:48:41.744Z,-0.43
2023-12-09T00:51:44.835Z,-0.44
2023-12-09T00:54:48.292Z,-0.43
2023-12-09T00:57:51.433Z,-0.44
2023-12-09T01:00:54.498Z,-0.44
2023-12-09T01:03:57.698Z,-0.43
2023-12-09T01:07:00.862Z,-0.42
2023-12-09T01:10:04.986Z,-0.40
2023-12-09T01:13:08.082Z,-0.39
2023-12-09T01:16:11.057Z,-0.40
2023-12-09T01:19:14.145Z,-0.37
2023-12-09T01:22:17.178Z,-0.36
2023-12-09T01:25:20.212Z,-0.34
2023-12-09T01:28:23.688Z,-0.32
2023-12-09T01:31:26.810Z,-0.29
2023-12-09T01:34:29.937Z,-0.28
2023-12-09T01:37:32.954Z,-0.29
2023-12-09T01:40:35.921Z,-0.28
2023-12-09T01:43:38.896Z,-0.27
2023-12-09T01:46:42.734Z,-0.27
2023-12-09T01:49:46.320Z,-0.26
2023-12-09T01:52:49.488Z,-0.25
2023-12-09T01:55:52.600Z,-0.23
2023-12-09T01:58:55.715Z,-0.23
2023-12-09T02:01:59.465Z,-0.22
2023-12-09T02:05:03.822Z,-0.18
2023-12-09T02:08:06.977Z,-0.17
2023-12-09T02:11:29.736Z,-0.17
2023-12-09T02:15:19.217Z,-0.16
2023-12-09T02:18:23.767Z,-0.14
2023-12-09T02:21:27.795Z,-0.14
2023-12-09T02:24:31.587Z,-0.15
2023-12-09T02:27:53.501Z,-0.16
2023-12-09T02:30:59.754Z,-0.15
2023-12-09T02:34:04.501Z,-0.17
2023-12-09T02:37:09.527Z,-0.17
2023-12-09T02:40:14.927Z,-0.17
2023-12-09T02:43:18.128Z,-0.17
2023-12-09T02:46:21.118Z,-0.16
2023-12-09T02:49:24.994Z,-0.15
2023-12-09T02:52:28.438Z,-0.15
2023-12-09T02:55:31.772Z,-0.14
2023-12-09T02:58:34.791Z,-0.13
2023-12-09T03:01:37.802Z,-0.10
2023-12-09T03:04:40.901Z,-0.08
2023-12-09T03:07:43.891Z,-0.08
2023-12-09T03:10:46.917Z,-0.07
2023-12-09T03:13:49.921Z,-0.07
2023-12-09T03:16:52.865Z,-0.03
2023-12-09T03:19:56.378Z,-0.02
2023-12-09T03:22:59.432Z,-0.02
2023-12-09T03:26:02.386Z,-0.02
2023-12-09T03:29:05.765Z,-0.01
2023-12-09T03:32:08.798Z,0.02
2023-12-09T03:35:13.499Z,0.03
2023-12-09T03:38:16.649Z,0.04
2023-12-09T03:41:21.231Z,0.07
2023-12-09T03:44:25.413Z,0.06
2023-12-09T03:47:29.798Z,0.08
2023-12-09T03:50:33.150Z,0.09
2023-12-09T03:53:36.190Z,0.12
2023-12-09T03:56:39.242Z,0.13
2023-12-09T03:59:42.394Z,0.13
2023-12-09T04:02:45.493Z,0.14
2023-12-09T04:05:48.671Z,0.15
2023-12-09T04:08:51.665Z,0.17
2023-12-09T04:11:54.910Z,0.20
2023-12-09T04:14:58.612Z,0.24
2023-12-09T04:18:01.791Z,0.27
2023-12-09T04:21:05.267Z,0.28
2023-12-09T04:24:08.546Z,0.31
2023-12-09T04:27:11.505Z,0.35
2023-12-09T04:30:14.815Z,0.39
2023-12-09T04:33:17.929Z,0.42
2023-12-09T04:36:21.034Z,0.45
2023-12-09T04:39:24.120Z,0.47
2023-12-09T04:42:27.589Z,0.50
2023-12-09T04:45:30.883Z,0.52
2023-12-09T04:48:34.045Z,0.55
2023-12-09T04:51:37.272Z,0.58
2023-12-09T04:54:40.367Z,0.59
2023-12-09T04:57:43.443Z,0.62
2023-12-09T05:00:46.537Z,0.65
2023-12-09T05:03:49.687Z,0.65
2023-12-09T05:06:52.841Z,0.69
2023-12-09T05:09:55.996Z,0.69
2023-12-09T05:12:59.044Z,0.70
2023-12-09T05:16:02.103Z,0.70
2023-12-09T05:19:06.981Z,0.70
2023-12-09T05:22:10.082Z,0.70
2023-12-09T05:25:13.186Z,0.71
2023-12-09T05:28:16.377Z,0.73
2023-12-09T05:31:19.934Z,0.73
2023-12-09T05:34:23.120Z,0.72
2023-12-09T05:37:26.190Z,0.71
2023-12-09T05:40:30.855Z,0.70
2023-12-09T05:43:37.024Z,0.69
2023-12-09T05:46:41.416Z,0.69
2023-12-09T05:49:44.577Z,0.68
2023-12-09T05:52:47.642Z,0.67
2023-12-09T05:55:50.682Z,0.67
2023-12-09T05:58:53.898Z,0.68
2023-12-09T06:01:57.319Z,0.68
2023-12-09T06:05:00.359Z,0.67
2023-12-09T06:08:03.613Z,0.68
2023-12-09T06:11:06.815Z,0.68
2023-12-09T06:14:09.887Z,0.69
2023-12-09T06:17:12.967Z,0.70
2023-12-09T06:20:16.204Z,0.69
2023-12-09T06:23:19.344Z,0.70
2023-12-09T06:26:22.431Z,0.68
2023-12-09T06:29:25.509Z,0.70
2023-12-09T06:32:28.838Z,0.69
2023-12-09T06:35:32.001Z,0.71
2023-12-09T06:38:40.707Z,0.72
2023-12-09T06:41:43.856Z,0.73
2023-12-09T06:44:47.091Z,0.75
2023-12-09T06:47:50.384Z,0.76
2023-12-09T06:50:53.590Z,0.78
2023-12-09T06:53:57.546Z,0.78
2023-12-09T06:57:00.731Z,0.79
2023-12-09T07:00:09.421Z,0.78
2023-12-09T07:03:12.997Z,0.77
2023-12-09T07:06:18.485Z,0.79
2023-12-09T07:09:21.971Z,0.81
2023-12-09T07:12:25.359Z,0.81
2023-12-09T07:15:28.846Z,0.84
2023-12-09T07:18:31.986Z,0.86
2023-12-09T07:21:35.242Z,0.89
2023-12-09T07:24:38.457Z,0.93
2023-12-09T07:27:41.526Z,0.95
2023-12-09T07:30:44.581Z,1.00
2023-12-09T07:33:47.824Z,1.03
2023-12-09T07:36:50.931Z,1.06
2023-12-09T07:39:53.919Z,1.08
2023-12-09T07:42:56.894Z,1.11
2023-12-09T07:45:59.931Z,1.13
2023-12-09T07:49:03.602Z,1.15
2023-12-09T07:52:06.957Z,1.18
2023-12-09T07:55:10.474Z,1.19
2023-12-09T07:58:13.610Z,1.22
2023-12-09T08:01:16.722Z,1.25
2023-12-09T08:04:19.885Z,1.27
2023-12-09T08:07:23.133Z,1.30
2023-12-09T08:10:26.172Z,1.32
2023-12-09T08:13:29.200Z,1.34
2023-12-09T08:16:32.234Z,1.35
2023-12-09T08:19:35.284Z,1.39
2023-12-09T08:22:40.219Z,1.39
2023-12-09T08:25:44.743Z,1.41
2023-12-09T08:28:47.900Z,1.42
2023-12-09T08:31:50.985Z,1.46
2023-12-09T08:35:02.851Z,1.49
2023-12-09T08:38:10.613Z,1.54
2023-12-09T08:41:13.763Z,1.54
2023-12-09T08:44:16.879Z,1.56
2023-12-09T08:47:20.066Z,1.59
2023-12-09T08:50:25.460Z,1.60
2023-12-09T08:53:29.216Z,1.63
2023-12-09T08:56:32.321Z,1.66
2023-12-09T08:59:36.952Z,1.69
2023-12-09T09:02:40.108Z,1.71
2023-12-09T09:05:43.968Z,1.74
2023-12-09T09:08:47.123Z,1.75
2023-12-09T09:11:50.633Z,1.76
2023-12-09T09:14:56.917Z,1.77
2023-12-09T09:18:00.729Z,1.79
2023-12-09T09:21:04.099Z,1.79
2023-12-09T09:24:09.181Z,1.81
2023-12-09T09:27:12.360Z,1.83
2023-12-09T09:30:16.018Z,1.86
2023-12-09T09:33:19.473Z,1.88
2023-12-09T09:36:24.277Z,1.89
2023-12-09T09:39:28.092Z,1.92
2023-12-09T09:42:45.576Z,1.93
2023-12-09T09:45:54.774Z,1.94
2023-12-09T09:49:03.812Z,1.95
2023-12-09T09:52:10.844Z,1.96
2023-12-09T09:55:16.387Z,1.97
2023-12-09T09:58:19.465Z,1.98
2023-12-09T10:01:24.827Z,1.96
2023-12-09T10:04:28.191Z,1.95
2023-12-09T10:07:31.958Z,1.97
2023-12-09T10:10:36.597Z,1.98
2023-12-09T10:13:39.853Z,1.99
2023-12-09T10:16:43.734Z,2.00
2023-12-09T10:19:46.736Z,2.02
2023-12-09T10:22:49.839Z,2.04
2023-12-09T10:25:53.068Z,2.06
2023-12-09T10:28:56.426Z,2.08
2023-12-09T10:32:02.365Z,2.08
2023-12-09T10:35:06.641Z,2.09
2023-12-09T10:38:10.299Z,2.07
2023-12-09T10:41:14.598Z,2.08
2023-12-09T10:44:18.391Z,2.08
2023-12-09T10:47:21.393Z,2.09
2023-12-09T10:50:24.802Z,2.08
2023-12-09T10:53:27.982Z,2.08
2023-12-09T10:56:31.720Z,2.09
2023-12-09T10:59:35.815Z,2.11
2023-12-09T11:02:42.564Z,2.14
2023-12-09T11:05:56.058Z,2.16
2023-12-09T11:08:59.297Z,2.17
2023-12-09T11:12:02.408Z,2.18
2023-12-09T11:15:14.625Z,2.19
2023-12-09T11:18:19.053Z,2.17
2023-12-09T11:21:27.256Z,2.17
2023-12-09T11:24:31.732Z,2.20
2023-12-09T11:27:35.997Z,2.22
2023-12-09T11:30:45.475Z,2.21
2023-12-09T11:33:50.401Z,2.20
2023-12-09T11:36:55.128Z,2.21
2023-12-09T11:39:59.165Z,2.20
2023-12-09T11:43:04.796Z,2.19
2023-12-09T11:46:07.843Z,2.19
2023-12-09T11:49:11.172Z,2.19
2023-12-09T11:52:15.235Z,2.20
2023-12-09T11:55:18.896Z,2.19
2023-12-09T11:58:21.894Z,2.19
2023-12-09T12:01:26.617Z,2.20
2023-12-09T12:04:36.827Z,2.20
2023-12-09T12:07:41.913Z,2.21
2023-12-09T12:10:44.922Z,2.21
2023-12-09T12:13:48.883Z,2.21
2023-12-09T12:16:52.032Z,2.20
2023-12-09T12:19:55.111Z,2.19
2023-12-09T12:22:58.546Z,2.19
2023-12-09T12:26:02.121Z,2.18
2023-12-09T12:29:05.452Z,2.15
2023-12-09T12:32:09.130Z,2.12
2023-12-09T12:35:12.499Z,2.11
2023-12-09T12:38:15.683Z,2.11
2023-12-09T12:41:19.092Z,2.11
2023-12-09T12:44:22.385Z,2.09
2023-12-09T12:47:25.541Z,2.07
2023-12-09T12:50:30.085Z,2.07
2023-12-09T12:53:33.341Z,2.04
2023-12-09T12:56:36.895Z,2.02
2023-12-09T12:59:43.074Z,2.03
2023-12-09T13:02:46.419Z,2.00
2023-12-09T13:05:49.606Z,2.00
2023-12-09T13:08:52.757Z,2.00
2023-12-09T13:11:55.870Z,2.00
2023-12-09T13:14:58.969Z,1.99
2023-12-09T13:18:02.760Z,2.01
2023-12-09T13:21:07.360Z,1.99
2023-12-09T13:24:12.233Z,1.99
2023-12-09T13:27:15.537Z,1.99
2023-12-09T13:30:19.036Z,2.00
2023-12-09T13:33:22.924Z,2.01
2023-12-09T13:36:26.351Z,2.03
2023-12-09T13:39:29.669Z,2.00
2023-12-09T13:42:33.358Z,2.01
2023-12-09T13:45:37.536Z,1.99
2023-12-09T13:48:41.089Z,1.96
2023-12-09T13:51:44.391Z,1.91
2023-12-09T13:54:48.526Z,1.89
2023-12-09T13:57:51.699Z,1.86
2023-12-09T14:00:55.093Z,1.85
2023-12-09T14:03:58.452Z,1.85
2023-12-09T14:07:02.038Z,1.83
2023-12-09T14:10:06.471Z,1.82
2023-12-09T14:13:09.692Z,1.82
2023-12-09T14:16:13.996Z,1.84
2023-12-09T14:19:17.339Z,1.83
2023-12-09T14:22:20.933Z,1.82
2023-12-09T14:25:24.317Z,1.81
2023-12-09T14:28:27.504Z,1.80
2023-12-09T14:31:30.821Z,1.80
2023-12-09T14:34:34.331Z,1.80
2023-12-09T14:37:37.738Z,1.78
2023-12-09T14:40:41.729Z,1.79
2023-12-09T14:43:47.025Z,1.77
2023-12-09T14:46:51.834Z,1.76
2023-12-09T14:49:55.198Z,1.76
2023-12-09T14:52:58.413Z,1.74
2023-12-09T14:56:02.160Z,1.75
2023-12-09T14:59:06.545Z,1.72
2023-12-09T15:02:09.773Z,1.72
2023-12-09T15:05:13.062Z,1.70
2023-12-09T15:08:16.258Z,1.68
2023-12-09T15:11:19.639Z,1.65
2023-12-09T15:14:22.946Z,1.64
2023-12-09T15:17:26.550Z,1.64
2023-12-09T15:20:29.859Z,1.65
2023-12-09T15:23:33.002Z,1.64
2023-12-09T15:26:36.563Z,1.65
2023-12-09T15:29:40.404Z,1.64
2023-12-09T15:32:45.549Z,1.63
2023-12-09T15:35:48.993Z,1.60
2023-12-09T15:38:52.193Z,1.58
2023-12-09T15:41:55.572Z,1.56
2023-12-09T15:44:58.913Z,1.54
2023-12-09T15:48:02.454Z,1.54
2023-12-09T15:51:08.314Z,1.55
2023-12-09T15:54:11.603Z,1.56
2023-12-09T15:57:14.995Z,1.57
2023-12-09T16:00:18.537Z,1.59
2023-12-09T16:03:21.994Z,1.61
2023-12-09T16:06:25.273Z,1.63
2023-12-09T16:09:28.589Z,1.62
2023-12-09T16:12:32.740Z,1.64
2023-12-09T16:15:36.141Z,1.64
2023-12-09T16:18:40.360Z,1.65
2023-12-09T16:21:44.267Z,1.66
2023-12-09T16:24:49.166Z,1.65
2023-12-09T16:27:52.432Z,1.64
2023-12-09T16:30:58.369Z,1.64
2023-12-09T16:34:03.960Z,1.63
2023-12-09T16:37:07.317Z,1.61
2023-12-09T16:40:13.137Z,1.60
2023-12-09T16:43:16.329Z,1.62
2023-12-09T16:46:19.945Z,1.63
2023-12-09T16:49:23.752Z,1.64
2023-12-09T16:52:27.322Z,1.65
2023-12-09T16:55:30.799Z,1.67
2023-12-09T16:58:34.165Z,1.66
2023-12-09T17:01:41.375Z,1.64
2023-12-09T17:04:44.644Z,1.63
2023-12-09T17:07:47.821Z,1.63
2023-12-09T17:10:50.868Z,1.61
2023-12-09T17:13:55.430Z,1.62
2023-12-09T17:17:00.777Z,1.59
2023-12-09T17:20:07.074Z,1.56
2023-12-09T17:23:10.821Z,1.53
2023-12-09T17:26:15.051Z,1.51
2023-12-09T17:29:18.337Z,1.50
2023-12-09T17:32:21.410Z,1.48
2023-12-09T17:35:29.920Z,1.46
2023-12-09T17:38:33.424Z,1.44
2023-12-09T17:41:36.591Z,1.44
2023-12-09T17:44:40.136Z,1.49
2023-12-09T17:47:43.369Z,1.56
2023-12-09T17:50:46.914Z,1.55
2023-12-09T17:53:50.032Z,1.51
2023-12-09T17:56:53.095Z,1.50
2023-12-09T17:59:56.510Z,1.45
2023-12-09T18:02:59.656Z,1.43
2023-12-09T18:06:04.669Z,1.41
2023-12-09T18:09:08.116Z,1.39
2023-12-09T18:12:11.523Z,1.39
2023-12-09T18:15:14.794Z,1.42
2023-12-09T18:18:18.816Z,1.40
2023-12-09T18:21:24.987Z,1.40
2023-12-09T18:24:28.498Z,1.39
2023-12-09T18:27:32.831Z,1.38
2023-12-09T18:30:36.371Z,1.37
2023-12-09T18:33:40.268Z,1.36
2023-12-09T18:36:43.591Z,1.35
2023-12-09T18:39:46.817Z,1.34
2023-12-09T18:42:52.268Z,1.34
2023-12-09T18:45:55.955Z,1.34
2023-12-09T18:49:00.544Z,1.32
2023-12-09T18:52:05.315Z,1.32
2023-12-09T18:55:08.836Z,1.32
2023-12-09T18:58:13.345Z,1.30
2023-12-09T19:01:16.743Z,1.30
2023-12-09T19:04:19.916Z,1.30
2023-12-09T19:07:24.991Z,1.30
2023-12-09T19:10:29.151Z,1.29
2023-12-09T19:13:32.804Z,1.29
2023-12-09T19:16:36.608Z,1.30
2023-12-09T19:19:39.936Z,1.31
2023-12-09T19:22:43.954Z,1.32
2023-12-09T19:25:47.342Z,1.33
2023-12-09T19:28:50.618Z,1.33
2023-12-09T19:31:53.784Z,1.32
2023-12-09T19:34:57.185Z,1.32
2023-12-09T19:38:00.267Z,1.35
2023-12-09T19:41:03.829Z,1.36
2023-12-09T19:44:07.138Z,1.38
2023-12-09T19:47:10.419Z,1.39
2023-12-09T19:50:13.832Z,1.41
2023-12-09T19:53:16.940Z,1.40
2023-12-09T19:56:20.199Z,1.40
2023-12-09T19:59:23.476Z,1.40
2023-12-09T20:02:26.875Z,1.41
2023-12-09T20:05:30.072Z,1.39
2023-12-09T20:08:33.347Z,1.40
2023-12-09T20:11:36.421Z,1.40
2023-12-09T20:14:39.756Z,1.41
2023-12-09T20:17:42.959Z,1.42
2023-12-09T20:20:46.106Z,1.43
2023-12-09T20:23:49.376Z,1.44
2023-12-09T20:26:52.587Z,1.44
2023-12-09T20:29:55.979Z,1.44
2023-12-09T20:32:59.199Z,1.44
2023-12-09T20:36:03.405Z,1.44
2023-12-09T20:39:06.648Z,1.46
2023-12-09T20:42:09.793Z,1.48
2023-12-09T20:45:13.120Z,1.50
2023-12-09T20:48:17.275Z,1.51
2023-12-09T20:51:22.773Z,1.53
2023-12-09T20:54:25.897Z,1.54
2023-12-09T20:57:28.982Z,1.55
2023-12-09T21:00:32.148Z,1.57
2023-12-09T21:03:35.334Z,1.58
2023-12-09T21:06:38.585Z,1.58
2023-12-09T21:09:41.936Z,1.59
2023-12-09T21:12:45.396Z,1.59
2023-12-09T21:15:48.583Z,1.56
2023-12-09T21:18:52.145Z,1.55
2023-12-09T21:21:56.284Z,1.53
2023-12-09T21:24:59.981Z,1.49
2023-12-09T21:28:04.852Z,1.44
2023-12-09T21:31:15.301Z,1.40
2023-12-09T21:34:18.937Z,1.36
2023-12-09T21:37:22.131Z,1.32
2023-12-09T21:40:25.307Z,1.30
2023-12-09T21:43:28.395Z,1.27
2023-12-09T21:46:31.698Z,1.22
2023-12-09T21:49:34.807Z,1.17
2023-12-09T21:52:38.053Z,1.12
2023-12-09T21:55:41.724Z,1.07
2023-12-09T21:58:44.837Z,1.03
2023-12-09T22:01:50.534Z,0.98
2023-12-09T22:04:56.013Z,0.94
2023-12-09T22:07:59.133Z,0.90
2023-12-09T22:11:02.458Z,0.86
2023-12-09T22:14:05.508Z,0.84
2023-12-09T22:17:08.738Z,0.82
2023-12-09T22:20:12.173Z,0.80
2023-12-09T22:23:15.251Z,0.80
2023-12-09T22:26:18.308Z,0.80
2023-12-09T22:29:21.624Z,0.79
2023-12-09T22:32:26.003Z,0.77
2023-12-09T22:35:33.106Z,0.76
2023-12-09T22:38:36.319Z,0.75
2023-12-09T22:41:40.033Z,0.73
2023-12-09T22:44:43.914Z,0.70
2023-12-09T22:47:47.188Z,0.68
2023-12-09T22:50:51.984Z,0.67
2023-12-09T22:53:56.513Z,0.63
2023-12-09T22:56:59.745Z,0.63
2023-12-09T23:00:09.799Z,0.63
2023-12-09T23:03:13.159Z,0.63
2023-12-09T23:06:17.072Z,0.62
2023-12-09T23:09:20.246Z,0.60
2023-12-09T23:12:23.425Z,0.60
2023-12-09T23:15:26.571Z,0.58
2023-12-09T23:18:30.384Z,0.57
2023-12-09T23:21:33.657Z,0.57
2023-12-09T23:24:37.804Z,0.56
2023-12-09T23:27:41.021Z,0.56
2023-12-09T23:30:44.198Z,0.56
2023-12-09T23:33:47.360Z,0.56
2023-12-09T23:36:50.657Z,0.56
2023-12-09T23:39:53.869Z,0.56
2023-12-09T23:42:57.013Z,0.54
2023-12-09T23:46:00.182Z,0.51
2023-12-09T23:49:03.411Z,0.49
2023-12-09T23:52:06.647Z,0.45
2023-12-09T23:55:09.827Z,0.42
2023-12-09T23:58:13.007Z,0.38
